createdAt,value
2017-07-30T00:00:19.296Z,0
2017-07-30T00:01:20.033Z,0
2017-07-30T00:02:21.022Z,0
2017-07-30T00:03:21.766Z,0
2017-07-30T00:04:22.510Z,0
2017-07-30T00:05:23.255Z,0
2017-07-30T00:06:24.050Z,0
2017-07-30T00:07:25.087Z,0
2017-07-30T00:08:25.916Z,0
2017-07-30T00:09:26.655Z,0
2017-07-30T00:10:27.391Z,0
2017-07-30T00:11:28.125Z,0
2017-07-30T00:12:29.229Z,0
2017-07-30T00:13:30.024Z,0
2017-07-30T00:14:30.821Z,0
2017-07-30T00:15:31.622Z,0
2017-07-30T00:16:32.354Z,0
2017-07-30T00:17:33.443Z,0
2017-07-30T00:18:34.258Z,0
2017-07-30T00:19:35.000Z,0
2017-07-30T00:20:35.740Z,0
2017-07-30T00:21:36.470Z,0
2017-07-30T00:22:37.640Z,0
2017-07-30T00:23:38.380Z,0
2017-07-30T00:24:39.190Z,0
2017-07-30T00:25:39.930Z,0
2017-07-30T00:26:40.750Z,0
2017-07-30T00:27:41.840Z,0
2017-07-30T00:28:42.580Z,0
2017-07-30T00:29:43.321Z,0
2017-07-30T00:30:44.061Z,0
2017-07-30T00:31:44.800Z,0
2017-07-30T00:32:45.950Z,0
2017-07-30T00:33:46.687Z,0
2017-07-30T00:34:47.424Z,0
2017-07-30T00:35:48.252Z,0
2017-07-30T00:36:49.082Z,0
2017-07-30T00:37:49.884Z,0
2017-07-30T00:38:50.940Z,0
2017-07-30T00:39:51.682Z,0
2017-07-30T00:40:52.422Z,0
2017-07-30T00:41:53.162Z,0
2017-07-30T00:42:53.905Z,0
2017-07-30T00:43:54.990Z,0
2017-07-30T00:44:55.740Z,0
2017-07-30T00:45:56.478Z,0
2017-07-30T00:46:57.220Z,0
2017-07-30T00:47:57.971Z,0
2017-07-30T00:48:59.069Z,0
2017-07-30T00:49:59.850Z,0
2017-07-30T00:51:00.601Z,0
2017-07-30T00:52:01.442Z,0
2017-07-30T00:53:02.226Z,0
2017-07-30T00:54:03.460Z,0
2017-07-30T00:55:04.278Z,0
2017-07-30T00:56:05.014Z,0
2017-07-30T00:57:05.765Z,0
2017-07-30T00:58:06.521Z,0
2017-07-30T00:59:08.020Z,0
2017-07-30T01:00:09.776Z,0
2017-07-30T01:01:10.942Z,0
2017-07-30T01:02:12.811Z,0
2017-07-30T01:03:14.873Z,0
2017-07-30T01:04:17.618Z,0
2017-07-30T01:05:18.766Z,0
2017-07-30T01:06:19.583Z,0
2017-07-30T01:07:20.382Z,0
2017-07-30T01:08:21.188Z,0
2017-07-30T01:09:22.180Z,0
2017-07-30T01:10:23.025Z,0
2017-07-30T01:11:23.854Z,0
2017-07-30T01:12:24.687Z,0
2017-07-30T01:13:25.495Z,0
2017-07-30T01:14:26.558Z,0
2017-07-30T01:15:27.307Z,0
2017-07-30T01:16:28.036Z,0
2017-07-30T01:17:28.869Z,0
2017-07-30T01:18:29.694Z,0
2017-07-30T01:19:30.842Z,0
2017-07-30T01:20:31.648Z,0
2017-07-30T01:21:32.461Z,0
2017-07-30T01:22:33.240Z,0
2017-07-30T01:23:33.980Z,0
2017-07-30T01:24:34.928Z,0
2017-07-30T01:25:35.660Z,0
2017-07-30T01:26:36.490Z,0
2017-07-30T01:27:37.228Z,0
2017-07-30T01:28:37.970Z,0
2017-07-30T01:29:39.060Z,0
2017-07-30T01:30:39.799Z,0
2017-07-30T01:31:40.540Z,0
2017-07-30T01:32:41.285Z,0
2017-07-30T01:33:42.109Z,0
2017-07-30T01:34:42.908Z,0
2017-07-30T01:35:43.640Z,0
2017-07-30T01:36:44.377Z,0
2017-07-30T01:37:45.121Z,0
2017-07-30T01:38:45.883Z,0
2017-07-30T01:39:47.014Z,0
2017-07-30T01:40:47.750Z,0
2017-07-30T01:41:48.490Z,0
2017-07-30T01:42:49.229Z,0
2017-07-30T01:43:49.971Z,0
2017-07-30T01:44:51.010Z,0
2017-07-30T01:45:51.744Z,0
2017-07-30T01:46:52.566Z,0
2017-07-30T01:47:53.315Z,0
2017-07-30T01:48:54.126Z,0
2017-07-30T01:49:55.213Z,0
2017-07-30T01:50:56.029Z,0
2017-07-30T01:51:56.838Z,0
2017-07-30T01:52:57.587Z,0
2017-07-30T01:53:58.330Z,0
2017-07-30T01:54:59.368Z,0
2017-07-30T01:56:00.121Z,0
2017-07-30T01:57:00.942Z,0
2017-07-30T01:58:01.681Z,0
2017-07-30T01:59:02.415Z,0
2017-07-30T02:00:03.451Z,0
2017-07-30T02:01:04.194Z,0
2017-07-30T02:02:04.943Z,0
2017-07-30T02:03:05.688Z,0
2017-07-30T02:04:06.421Z,0
2017-07-30T02:05:07.520Z,0
2017-07-30T02:06:08.261Z,0
2017-07-30T02:07:09.082Z,0
2017-07-30T02:08:09.823Z,0
2017-07-30T02:09:10.617Z,0
2017-07-30T02:10:11.448Z,0
2017-07-30T02:11:12.453Z,0
2017-07-30T02:12:13.251Z,0
2017-07-30T02:13:13.987Z,0
2017-07-30T02:14:14.736Z,0
2017-07-30T02:15:15.460Z,0
2017-07-30T02:16:16.496Z,0
2017-07-30T02:17:17.234Z,0
2017-07-30T02:18:17.969Z,0
2017-07-30T02:19:18.699Z,0
2017-07-30T02:20:19.445Z,0
2017-07-30T02:21:20.581Z,0
2017-07-30T02:22:21.404Z,0
2017-07-30T02:23:22.207Z,0
2017-07-30T02:24:22.942Z,0
2017-07-30T02:25:23.682Z,0
2017-07-30T02:26:25.305Z,0
2017-07-30T02:27:26.036Z,0
2017-07-30T02:28:26.773Z,0
2017-07-30T02:29:27.530Z,0
2017-07-30T02:30:28.334Z,0
2017-07-30T02:31:29.421Z,0
2017-07-30T02:32:30.157Z,0
2017-07-30T02:33:30.891Z,0
2017-07-30T02:34:31.630Z,0
2017-07-30T02:35:32.366Z,0
2017-07-30T02:36:33.448Z,0
2017-07-30T02:37:34.270Z,0
2017-07-30T02:38:35.004Z,0
2017-07-30T02:39:35.741Z,0
2017-07-30T02:40:36.484Z,0
2017-07-30T02:41:37.577Z,0
2017-07-30T02:42:38.319Z,0
2017-07-30T02:43:39.136Z,0
2017-07-30T02:44:39.908Z,0
2017-07-30T02:45:40.664Z,0
2017-07-30T02:46:41.857Z,0
2017-07-30T02:47:42.615Z,0
2017-07-30T02:48:43.398Z,0
2017-07-30T02:49:44.140Z,0
2017-07-30T02:50:44.952Z,0
2017-07-30T02:51:45.968Z,0
2017-07-30T02:52:46.709Z,0
2017-07-30T02:53:47.491Z,0
2017-07-30T02:54:48.229Z,0
2017-07-30T02:55:49.023Z,0
2017-07-30T02:56:50.107Z,0
2017-07-30T02:57:50.847Z,0
2017-07-30T02:58:51.597Z,0
2017-07-30T02:59:52.341Z,0
2017-07-30T03:00:53.080Z,0
2017-07-30T03:01:54.419Z,0
2017-07-30T03:02:55.220Z,0
2017-07-30T03:03:56.006Z,4
2017-07-30T03:04:56.762Z,4
2017-07-30T03:05:57.570Z,4
2017-07-30T03:06:58.695Z,0
2017-07-30T03:07:59.488Z,4
2017-07-30T03:09:00.237Z,4
2017-07-30T03:10:00.981Z,4
2017-07-30T03:11:01.725Z,4
2017-07-30T03:12:02.700Z,8
2017-07-30T03:13:03.445Z,8
2017-07-30T03:14:04.272Z,12
2017-07-30T03:15:05.091Z,12
2017-07-30T03:16:05.830Z,12
2017-07-30T03:17:07.006Z,16
2017-07-30T03:18:07.822Z,20
2017-07-30T03:19:08.545Z,24
2017-07-30T03:20:09.279Z,24
2017-07-30T03:21:10.014Z,24
2017-07-30T03:22:11.097Z,32
2017-07-30T03:23:11.837Z,36
2017-07-30T03:24:12.596Z,36
2017-07-30T03:25:13.412Z,40
2017-07-30T03:26:14.218Z,48
2017-07-30T03:27:15.198Z,56
2017-07-30T03:28:15.947Z,64
2017-07-30T03:29:16.678Z,68
2017-07-30T03:30:17.426Z,80
2017-07-30T03:31:18.239Z,92
2017-07-30T03:32:19.283Z,100
2017-07-30T03:33:20.019Z,112
2017-07-30T03:34:20.770Z,120
2017-07-30T03:35:21.558Z,132
2017-07-30T03:36:22.298Z,144
2017-07-30T03:37:23.420Z,152
2017-07-30T03:38:24.219Z,168
2017-07-30T03:39:24.950Z,180
2017-07-30T03:40:25.701Z,192
2017-07-30T03:41:26.442Z,208
2017-07-30T03:42:27.378Z,228
2017-07-30T03:43:28.118Z,248
2017-07-30T03:44:29.394Z,264
2017-07-30T03:45:30.211Z,284
2017-07-30T03:46:32.445Z,304
2017-07-30T03:47:34.196Z,324
2017-07-30T03:48:36.427Z,348
2017-07-30T03:49:36.968Z,368
2017-07-30T03:50:38.166Z,392
2017-07-30T03:51:38.990Z,416
2017-07-30T03:52:40.787Z,448
2017-07-30T03:53:41.889Z,492
2017-07-30T03:54:42.697Z,532
2017-07-30T03:55:43.451Z,580
2017-07-30T03:56:44.258Z,636
2017-07-30T03:57:45.003Z,700
2017-07-30T03:58:45.827Z,768
2017-07-30T03:59:46.627Z,836
2017-07-30T04:00:47.386Z,916
2017-07-30T04:01:48.122Z,980
2017-07-30T04:02:48.867Z,1032
2017-07-30T04:03:49.809Z,1084
2017-07-30T04:04:50.629Z,1132
2017-07-30T04:05:51.371Z,1180
2017-07-30T04:06:52.182Z,1232
2017-07-30T04:07:52.908Z,1264
2017-07-30T04:08:53.945Z,1312
2017-07-30T04:09:55.456Z,1368
2017-07-30T04:10:56.155Z,1420
2017-07-30T04:11:56.952Z,1440
2017-07-30T04:12:57.702Z,1444
2017-07-30T04:13:58.637Z,1464
2017-07-30T04:14:59.388Z,1496
2017-07-30T04:16:00.204Z,1552
2017-07-30T04:17:00.946Z,1612
2017-07-30T04:18:01.688Z,1692
2017-07-30T04:19:02.729Z,1768
2017-07-30T04:20:03.473Z,1832
2017-07-30T04:21:04.303Z,1808
2017-07-30T04:22:05.097Z,1672
2017-07-30T04:23:05.837Z,1480
2017-07-30T04:24:06.873Z,1288
2017-07-30T04:25:07.604Z,1120
2017-07-30T04:26:08.346Z,992
2017-07-30T04:27:09.094Z,892
2017-07-30T04:28:09.913Z,796
2017-07-30T04:29:10.848Z,700
2017-07-30T04:30:11.592Z,620
2017-07-30T04:31:12.334Z,524
2017-07-30T04:32:13.142Z,452
2017-07-30T04:33:13.893Z,396
2017-07-30T04:34:14.985Z,352
2017-07-30T04:35:15.741Z,320
2017-07-30T04:36:16.482Z,296
2017-07-30T04:37:17.210Z,284
2017-07-30T04:38:17.960Z,272
2017-07-30T04:39:19.133Z,260
2017-07-30T04:40:19.930Z,232
2017-07-30T04:41:20.661Z,236
2017-07-30T04:42:21.462Z,200
2017-07-30T04:43:22.275Z,192
2017-07-30T04:44:23.478Z,188
2017-07-30T04:45:24.220Z,180
2017-07-30T04:46:25.032Z,176
2017-07-30T04:47:25.779Z,172
2017-07-30T04:48:26.622Z,172
2017-07-30T04:49:27.767Z,192
2017-07-30T04:50:28.552Z,224
2017-07-30T04:51:29.293Z,272
2017-07-30T04:52:30.027Z,276
2017-07-30T04:53:30.772Z,268
2017-07-30T04:54:31.991Z,320
2017-07-30T04:55:32.746Z,280
2017-07-30T04:56:33.572Z,348
2017-07-30T04:57:34.309Z,392
2017-07-30T04:58:35.045Z,428
2017-07-30T04:59:36.094Z,548
2017-07-30T05:00:36.819Z,724
2017-07-30T05:01:37.618Z,1056
2017-07-30T05:02:38.360Z,1492
2017-07-30T05:03:39.105Z,2020
2017-07-30T05:04:40.250Z,2592
2017-07-30T05:05:40.987Z,3124
2017-07-30T05:06:41.744Z,3500
2017-07-30T05:07:42.555Z,3836
2017-07-30T05:08:43.358Z,4084
2017-07-30T05:09:44.447Z,4316
2017-07-30T05:10:45.206Z,4692
2017-07-30T05:11:45.945Z,4960
2017-07-30T05:12:46.809Z,5008
2017-07-30T05:13:47.522Z,4996
2017-07-30T05:14:48.238Z,4880
2017-07-30T05:15:49.181Z,4756
2017-07-30T05:16:50.011Z,4600
2017-07-30T05:17:50.751Z,4504
2017-07-30T05:18:51.510Z,4400
2017-07-30T05:19:52.243Z,4368
2017-07-30T05:20:52.997Z,4148
2017-07-30T05:21:53.830Z,4000
2017-07-30T05:22:54.568Z,3936
2017-07-30T05:23:55.311Z,3768
2017-07-30T05:24:56.059Z,3588
2017-07-30T05:25:57.058Z,3488
2017-07-30T05:26:57.814Z,3528
2017-07-30T05:27:58.632Z,3608
2017-07-30T05:28:59.369Z,3764
2017-07-30T05:30:00.188Z,3700
2017-07-30T05:31:01.183Z,3736
2017-07-30T05:32:01.991Z,4136
2017-07-30T05:33:02.729Z,4124
2017-07-30T05:34:03.552Z,3820
2017-07-30T05:35:04.302Z,3636
2017-07-30T05:36:05.342Z,3540
2017-07-30T05:37:06.181Z,3548
2017-07-30T05:38:06.982Z,3616
2017-07-30T05:39:07.791Z,3764
2017-07-30T05:40:08.616Z,3644
2017-07-30T05:41:09.781Z,3196
2017-07-30T05:42:10.603Z,3216
2017-07-30T05:43:11.417Z,3360
2017-07-30T05:44:12.251Z,3592
2017-07-30T05:45:13.003Z,3884
2017-07-30T05:46:13.753Z,3996
2017-07-30T05:47:14.948Z,4144
2017-07-30T05:48:15.682Z,4428
2017-07-30T05:49:16.431Z,5492
2017-07-30T05:50:17.167Z,5104
2017-07-30T05:51:17.915Z,5344
2017-07-30T05:52:19.007Z,5144
2017-07-30T05:53:19.754Z,5336
2017-07-30T05:54:20.550Z,6132
2017-07-30T05:55:21.360Z,6412
2017-07-30T05:56:22.124Z,5872
2017-07-30T05:57:22.932Z,5536
2017-07-30T05:58:23.742Z,5556
2017-07-30T05:59:24.500Z,5536
2017-07-30T06:00:25.288Z,5636
2017-07-30T06:01:26.027Z,5872
2017-07-30T06:02:27.055Z,5540
2017-07-30T06:03:27.764Z,5624
2017-07-30T06:04:28.587Z,5720
2017-07-30T06:05:29.383Z,6096
2017-07-30T06:06:30.189Z,6564
2017-07-30T06:07:31.237Z,7020
2017-07-30T06:08:31.986Z,7012
2017-07-30T06:09:32.727Z,6724
2017-07-30T06:10:33.556Z,6808
2017-07-30T06:11:34.302Z,8032
2017-07-30T06:12:35.387Z,7944
2017-07-30T06:13:36.134Z,7084
2017-07-30T06:14:36.880Z,6900
2017-07-30T06:15:37.617Z,10000
2017-07-30T06:16:38.366Z,9728
2017-07-30T06:17:39.308Z,6684
2017-07-30T06:18:40.052Z,8244
2017-07-30T06:19:40.791Z,7956
2017-07-30T06:20:41.537Z,7068
2017-07-30T06:21:42.291Z,6752
2017-07-30T06:22:43.368Z,6820
2017-07-30T06:23:44.128Z,6916
2017-07-30T06:24:44.942Z,7036
2017-07-30T06:25:45.682Z,6784
2017-07-30T06:26:46.441Z,7464
2017-07-30T06:27:47.528Z,7416
2017-07-30T06:28:48.283Z,7288
2017-07-30T06:29:49.032Z,7416
2017-07-30T06:30:49.790Z,8308
2017-07-30T06:31:50.591Z,8208
2017-07-30T06:32:51.596Z,9256
2017-07-30T06:33:52.386Z,10364
2017-07-30T06:34:53.146Z,11468
2017-07-30T06:35:53.933Z,12632
2017-07-30T06:36:54.707Z,14640
2017-07-30T06:37:55.511Z,13560
2017-07-30T06:38:56.728Z,10832
2017-07-30T06:39:57.481Z,10480
2017-07-30T06:40:58.221Z,9908
2017-07-30T06:41:58.978Z,11344
2017-07-30T06:42:59.721Z,11456
2017-07-30T06:44:00.742Z,9568
2017-07-30T06:45:01.496Z,12192
2017-07-30T06:46:02.288Z,12148
2017-07-30T06:47:03.020Z,12140
2017-07-30T06:48:03.711Z,11148
2017-07-30T06:49:04.858Z,14824
2017-07-30T06:50:05.599Z,16952
2017-07-30T06:51:06.338Z,14996
2017-07-30T06:52:07.074Z,14652
2017-07-30T06:53:07.822Z,15476
2017-07-30T06:54:08.961Z,17220
2017-07-30T06:55:09.702Z,18528
2017-07-30T06:56:10.451Z,17308
2017-07-30T06:57:11.205Z,15272
2017-07-30T06:58:12.031Z,13328
2017-07-30T06:59:13.243Z,11536
2017-07-30T07:00:14.042Z,10200
2017-07-30T07:01:14.782Z,9636
2017-07-30T07:02:15.535Z,9168
2017-07-30T07:03:16.316Z,50560
2017-07-30T07:04:17.403Z,10112
2017-07-30T07:05:18.210Z,10872
2017-07-30T07:06:18.951Z,9824
2017-07-30T07:07:19.689Z,8576
2017-07-30T07:08:20.438Z,8676
2017-07-30T07:09:21.486Z,8600
2017-07-30T07:10:22.317Z,8548
2017-07-30T07:11:23.096Z,8664
2017-07-30T07:12:23.834Z,8700
2017-07-30T07:13:24.578Z,12568
2017-07-30T07:14:25.729Z,9100
2017-07-30T07:15:26.467Z,8392
2017-07-30T07:16:27.216Z,12380
2017-07-30T07:17:27.965Z,8456
2017-07-30T07:18:28.792Z,14292
2017-07-30T07:19:29.820Z,15424
2017-07-30T07:20:30.571Z,18688
2017-07-30T07:21:31.318Z,23616
2017-07-30T07:22:32.131Z,22944
2017-07-30T07:23:32.928Z,26400
2017-07-30T07:24:33.870Z,18400
2017-07-30T07:25:34.616Z,56320
2017-07-30T07:26:35.361Z,21696
2017-07-30T07:27:36.193Z,25984
2017-07-30T07:28:37.013Z,21696
2017-07-30T07:29:38.163Z,23040
2017-07-30T07:30:38.961Z,59968
2017-07-30T07:31:39.698Z,35520
2017-07-30T07:32:40.508Z,57536
2017-07-30T07:33:41.246Z,57088
2017-07-30T07:34:42.337Z,36384
2017-07-30T07:35:43.092Z,54592
2017-07-30T07:36:43.903Z,22432
2017-07-30T07:37:44.648Z,54880
2017-07-30T07:38:45.462Z,55040
2017-07-30T07:39:46.663Z,52288
2017-07-30T07:40:47.403Z,57120
2017-07-30T07:41:48.156Z,56448
2017-07-30T07:42:48.951Z,56224
2017-07-30T07:43:49.723Z,55424
2017-07-30T07:44:50.914Z,55072
2017-07-30T07:45:51.718Z,55072
2017-07-30T07:46:52.474Z,56608
2017-07-30T07:47:53.273Z,58336
2017-07-30T07:48:54.107Z,60768
2017-07-30T07:49:55.226Z,61344
2017-07-30T07:50:56.033Z,61312
2017-07-30T07:51:56.819Z,61280
2017-07-30T07:52:57.567Z,62496
2017-07-30T07:53:58.321Z,63712
2017-07-30T07:54:59.368Z,63648
2017-07-30T07:56:00.121Z,63040
2017-07-30T07:57:00.867Z,60768
2017-07-30T07:58:01.678Z,58848
2017-07-30T07:59:02.420Z,57440
2017-07-30T08:00:03.471Z,57120
2017-07-30T08:01:04.294Z,58432
2017-07-30T08:02:05.038Z,60192
2017-07-30T08:03:05.791Z,61984
2017-07-30T08:04:06.536Z,63008
2017-07-30T08:05:07.598Z,63488
2017-07-30T08:06:08.417Z,62752
2017-07-30T08:07:09.173Z,62560
2017-07-30T08:08:09.984Z,63744
2017-07-30T08:09:10.815Z,66208
2017-07-30T08:10:11.965Z,67264
2017-07-30T08:11:12.761Z,67680
2017-07-30T08:12:13.501Z,65632
2017-07-30T08:13:14.290Z,62912
2017-07-30T08:14:15.040Z,61824
2017-07-30T08:15:15.871Z,62144
2017-07-30T08:16:16.971Z,64416
2017-07-30T08:17:17.789Z,67136
2017-07-30T08:18:18.626Z,68096
2017-07-30T08:19:19.371Z,66368
2017-07-30T08:20:20.190Z,64576
2017-07-30T08:21:21.286Z,64800
2017-07-30T08:22:22.050Z,66144
2017-07-30T08:23:22.841Z,68960
2017-07-30T08:24:23.591Z,68928
2017-07-30T08:25:24.410Z,66848
2017-07-30T08:26:25.231Z,65024
2017-07-30T08:27:26.056Z,64192
2017-07-30T08:28:26.907Z,65920
2017-07-30T08:29:27.632Z,68928
2017-07-30T08:30:28.437Z,69760
2017-07-30T08:31:29.438Z,73056
2017-07-30T08:32:30.192Z,74432
2017-07-30T08:33:30.988Z,77984
2017-07-30T08:34:31.742Z,82080
2017-07-30T08:35:32.553Z,82176
2017-07-30T08:36:33.792Z,86976
2017-07-30T08:37:34.539Z,83136
2017-07-30T08:38:35.303Z,78016
2017-07-30T08:39:36.099Z,28096
2017-07-30T08:40:36.932Z,56352
2017-07-30T08:41:37.681Z,76512
2017-07-30T08:42:38.429Z,75840
2017-07-30T08:43:39.246Z,68704
2017-07-30T08:44:39.994Z,70656
2017-07-30T08:45:40.808Z,23200
2017-07-30T08:46:41.753Z,72576
2017-07-30T08:47:42.569Z,63552
2017-07-30T08:48:43.331Z,73888
2017-07-30T08:49:44.132Z,81376
2017-07-30T08:50:44.865Z,78240
2017-07-30T08:51:46.009Z,74656
2017-07-30T08:52:46.758Z,74304
2017-07-30T08:53:47.511Z,80928
2017-07-30T08:54:48.262Z,85856
2017-07-30T08:55:49.013Z,85568
2017-07-30T08:56:50.006Z,84480
2017-07-30T08:57:50.781Z,14524
2017-07-30T08:58:51.569Z,80672
2017-07-30T08:59:52.325Z,80672
2017-07-30T09:00:53.079Z,78752
2017-07-30T09:01:54.239Z,74112
2017-07-30T09:02:54.992Z,38272
2017-07-30T09:03:55.836Z,32416
2017-07-30T09:04:56.618Z,74624
2017-07-30T09:05:57.374Z,80480
2017-07-30T09:06:58.409Z,80544
2017-07-30T09:07:59.237Z,90112
2017-07-30T09:08:59.990Z,54848
2017-07-30T09:10:00.782Z,38592
2017-07-30T09:11:01.529Z,32000
2017-07-30T09:12:02.599Z,88320
2017-07-30T09:13:03.412Z,27264
2017-07-30T09:14:04.217Z,32736
2017-07-30T09:15:04.963Z,101952
2017-07-30T09:16:05.700Z,99872
2017-07-30T09:17:06.825Z,96736
2017-07-30T09:18:07.579Z,54464
2017-07-30T09:19:08.327Z,92608
2017-07-30T09:20:09.070Z,97888
2017-07-30T09:21:09.893Z,102432
2017-07-30T09:22:10.998Z,106880
2017-07-30T09:23:11.745Z,105856
2017-07-30T09:24:12.490Z,103008
2017-07-30T09:25:13.334Z,100736
2017-07-30T09:26:14.115Z,29600
2017-07-30T09:27:15.524Z,34176
2017-07-30T09:28:16.262Z,77856
2017-07-30T09:29:17.011Z,30464
2017-07-30T09:30:17.751Z,28832
2017-07-30T09:31:18.497Z,31200
2017-07-30T09:32:19.602Z,32768
2017-07-30T09:33:20.356Z,49056
2017-07-30T09:34:21.100Z,24512
2017-07-30T09:35:21.852Z,25984
2017-07-30T09:36:22.599Z,73952
2017-07-30T09:37:23.647Z,25504
2017-07-30T09:38:24.402Z,24000
2017-07-30T09:39:25.138Z,45152
2017-07-30T09:40:25.892Z,89792
2017-07-30T09:41:26.644Z,38400
2017-07-30T09:42:27.809Z,76832
2017-07-30T09:43:28.625Z,60544
2017-07-30T09:44:29.372Z,32224
2017-07-30T09:45:30.115Z,68608
2017-07-30T09:46:30.863Z,33920
2017-07-30T09:47:31.613Z,95456
2017-07-30T09:48:32.350Z,29408
2017-07-30T09:49:33.555Z,21632
2017-07-30T09:50:34.373Z,18240
2017-07-30T09:51:35.168Z,15992
2017-07-30T09:52:35.924Z,13512
2017-07-30T09:53:36.762Z,13972
2017-07-30T09:54:37.908Z,20384
2017-07-30T09:55:38.665Z,20576
2017-07-30T09:56:39.480Z,17728
2017-07-30T09:57:40.319Z,16292
2017-07-30T09:58:41.111Z,20384
2017-07-30T09:59:42.320Z,23424
2017-07-30T10:00:43.056Z,27072
2017-07-30T10:01:43.802Z,20192
2017-07-30T10:02:44.631Z,15340
2017-07-30T10:03:45.356Z,18944
2017-07-30T10:04:46.466Z,19104
2017-07-30T10:05:47.277Z,15604
2017-07-30T10:06:48.047Z,19136
2017-07-30T10:07:48.867Z,28768
2017-07-30T10:08:49.611Z,29056
2017-07-30T10:09:50.714Z,31552
2017-07-30T10:10:51.471Z,32576
2017-07-30T10:11:52.207Z,31968
2017-07-30T10:12:52.971Z,106784
2017-07-30T10:13:53.714Z,60864
2017-07-30T10:14:54.881Z,100224
2017-07-30T10:15:55.685Z,33056
2017-07-30T10:16:56.794Z,28256
2017-07-30T10:17:57.541Z,88736
2017-07-30T10:18:58.318Z,84384
2017-07-30T10:19:59.051Z,76256
2017-07-30T10:20:59.784Z,83488
2017-07-30T10:22:00.906Z,100416
2017-07-30T10:23:01.667Z,29952
2017-07-30T10:24:02.440Z,91616
2017-07-30T10:25:03.232Z,87456
2017-07-30T10:26:04.063Z,101248
2017-07-30T10:27:05.201Z,82592
2017-07-30T10:28:06.049Z,21600
2017-07-30T10:29:06.863Z,23040
2017-07-30T10:30:07.726Z,73728
2017-07-30T10:31:08.548Z,99296
2017-07-30T10:32:09.573Z,104288
2017-07-30T10:33:10.319Z,104992
2017-07-30T10:34:11.087Z,37312
2017-07-30T10:35:11.881Z,54464
2017-07-30T10:36:12.626Z,89088
2017-07-30T10:37:13.616Z,42624
2017-07-30T10:38:14.444Z,97248
2017-07-30T10:39:15.269Z,97024
2017-07-30T10:40:16.462Z,62272
2017-07-30T10:41:17.207Z,40064
2017-07-30T10:42:18.298Z,48128
2017-07-30T10:43:19.130Z,69216
2017-07-30T10:44:19.874Z,72800
2017-07-30T10:45:20.714Z,81952
2017-07-30T10:46:21.468Z,107648
2017-07-30T10:47:22.286Z,106688
2017-07-30T10:48:23.103Z,105984
2017-07-30T10:49:23.929Z,93984
2017-07-30T10:50:24.767Z,110016
2017-07-30T10:51:25.509Z,108224
2017-07-30T10:52:26.321Z,108992
2017-07-30T10:53:27.073Z,96288
2017-07-30T10:54:27.973Z,64544
2017-07-30T10:55:28.845Z,99392
2017-07-30T10:56:30.796Z,98304
2017-07-30T10:57:32.472Z,93472
2017-07-30T10:58:33.623Z,87552
2017-07-30T10:59:35.486Z,83648
2017-07-30T11:00:36.924Z,90112
2017-07-30T11:01:38.784Z,99392
2017-07-30T11:02:39.729Z,104256
2017-07-30T11:03:40.586Z,100768
2017-07-30T11:04:41.827Z,81536
2017-07-30T11:05:42.991Z,96352
2017-07-30T11:06:44.382Z,102848
2017-07-30T11:07:46.007Z,106112
2017-07-30T11:08:46.991Z,93600
2017-07-30T11:09:47.857Z,91648
2017-07-30T11:10:48.710Z,77248
2017-07-30T11:11:49.892Z,103648
2017-07-30T11:12:50.710Z,96544
2017-07-30T11:13:51.452Z,94304
2017-07-30T11:14:52.278Z,80768
2017-07-30T11:15:53.075Z,42112
2017-07-30T11:16:54.070Z,58688
2017-07-30T11:17:54.816Z,41248
2017-07-30T11:18:55.571Z,93632
2017-07-30T11:19:56.329Z,105952
2017-07-30T11:20:57.146Z,94944
2017-07-30T11:21:58.296Z,88928
2017-07-30T11:22:59.103Z,49728
2017-07-30T11:23:59.952Z,40704
2017-07-30T11:25:00.700Z,33344
2017-07-30T11:26:01.466Z,31744
2017-07-30T11:27:02.550Z,62688
2017-07-30T11:28:03.378Z,57760
2017-07-30T11:29:04.219Z,42432
2017-07-30T11:30:05.021Z,77792
2017-07-30T11:31:05.748Z,52096
2017-07-30T11:32:06.798Z,45184
2017-07-30T11:33:07.595Z,53120
2017-07-30T11:34:08.361Z,23008
2017-07-30T11:35:09.215Z,19168
2017-07-30T11:36:10.040Z,17152
2017-07-30T11:37:11.221Z,14448
2017-07-30T11:38:11.975Z,11548
2017-07-30T11:39:12.799Z,11912
2017-07-30T11:40:13.560Z,16896
2017-07-30T11:41:14.370Z,22368
2017-07-30T11:42:15.229Z,24288
2017-07-30T11:43:16.030Z,72032
2017-07-30T11:44:16.871Z,43488
2017-07-30T11:45:18.268Z,98304
2017-07-30T11:46:19.007Z,102048
2017-07-30T11:47:20.107Z,91616
2017-07-30T11:48:20.931Z,83840
2017-07-30T11:49:21.689Z,100672
2017-07-30T11:50:22.492Z,106016
2017-07-30T11:51:23.250Z,90080
2017-07-30T11:52:24.431Z,91648
2017-07-30T11:53:25.172Z,79968
2017-07-30T11:54:25.930Z,40512
2017-07-30T11:55:26.779Z,103136
2017-07-30T11:56:27.607Z,100928
2017-07-30T11:57:28.669Z,31296
2017-07-30T11:58:29.568Z,30208
2017-07-30T11:59:30.366Z,27040
2017-07-30T12:00:31.121Z,25792
2017-07-30T12:01:31.882Z,28256
2017-07-30T12:02:33.061Z,94240
2017-07-30T12:03:33.823Z,87520
2017-07-30T12:04:34.641Z,85760
2017-07-30T12:05:35.434Z,86592
2017-07-30T12:06:36.260Z,85824
2017-07-30T12:07:37.391Z,91712
2017-07-30T12:08:38.193Z,88864
2017-07-30T12:09:39.006Z,81920
2017-07-30T12:10:39.755Z,86976
2017-07-30T12:11:40.560Z,92416
2017-07-30T12:12:41.317Z,89184
2017-07-30T12:13:42.059Z,88288
2017-07-30T12:14:42.871Z,90048
2017-07-30T12:15:43.642Z,88480
2017-07-30T12:16:44.471Z,88864
2017-07-30T12:17:45.296Z,81664
2017-07-30T12:18:46.394Z,86208
2017-07-30T12:19:47.226Z,84224
2017-07-30T12:20:47.990Z,77344
2017-07-30T12:21:48.766Z,80608
2017-07-30T12:22:49.602Z,81792
2017-07-30T12:23:50.891Z,82624
2017-07-30T12:24:51.723Z,78144
2017-07-30T12:25:52.584Z,40480
2017-07-30T12:26:53.323Z,63808
2017-07-30T12:27:54.158Z,24992
2017-07-30T12:28:55.380Z,37888
2017-07-30T12:29:56.212Z,44992
2017-07-30T12:30:57.041Z,38400
2017-07-30T12:31:57.781Z,25024
2017-07-30T12:32:58.611Z,21280
2017-07-30T12:33:59.463Z,16088
2017-07-30T12:35:00.290Z,11372
2017-07-30T12:36:01.140Z,10320
2017-07-30T12:37:01.964Z,17984
2017-07-30T12:38:02.811Z,26432
2017-07-30T12:39:03.646Z,23584
2017-07-30T12:40:04.432Z,21024
2017-07-30T12:41:05.306Z,19840
2017-07-30T12:42:06.122Z,20512
2017-07-30T12:43:06.845Z,31584
2017-07-30T12:44:07.990Z,37952
2017-07-30T12:45:08.823Z,48480
2017-07-30T12:46:09.564Z,34880
2017-07-30T12:47:10.423Z,35328
2017-07-30T12:48:11.251Z,90752
2017-07-30T12:49:12.435Z,94976
2017-07-30T12:50:13.258Z,82944
2017-07-30T12:51:14.070Z,71424
2017-07-30T12:52:14.820Z,77344
2017-07-30T12:53:15.666Z,79136
2017-07-30T12:54:16.753Z,77920
2017-07-30T12:55:18.449Z,84640
2017-07-30T12:56:19.176Z,27488
2017-07-30T12:57:20.006Z,36672
2017-07-30T12:58:20.836Z,47616
2017-07-30T12:59:22.003Z,29568
2017-07-30T13:00:22.801Z,43712
2017-07-30T13:01:23.621Z,84128
2017-07-30T13:02:24.362Z,74848
2017-07-30T13:03:25.211Z,82560
2017-07-30T13:04:26.334Z,82656
2017-07-30T13:05:27.159Z,23968
2017-07-30T13:06:27.914Z,21472
2017-07-30T13:07:28.757Z,23168
2017-07-30T13:08:29.512Z,74528
2017-07-30T13:09:30.790Z,27008
2017-07-30T13:10:31.557Z,23712
2017-07-30T13:11:32.390Z,25088
2017-07-30T13:12:33.224Z,35072
2017-07-30T13:13:34.051Z,29184
2017-07-30T13:14:35.144Z,22272
2017-07-30T13:15:36.196Z,20224
2017-07-30T13:16:37.038Z,69248
2017-07-30T13:17:37.887Z,56320
2017-07-30T13:18:38.712Z,28768
2017-07-30T13:19:40.052Z,24640
2017-07-30T13:20:40.845Z,27808
2017-07-30T13:21:41.700Z,36192
2017-07-30T13:22:42.445Z,47648
2017-07-30T13:23:43.315Z,57248
2017-07-30T13:24:44.508Z,57888
2017-07-30T13:25:45.494Z,28256
2017-07-30T13:26:46.262Z,28160
2017-07-30T13:27:47.801Z,43648
2017-07-30T13:28:48.536Z,35552
2017-07-30T13:29:50.138Z,23488
2017-07-30T13:30:50.856Z,23232
2017-07-30T13:31:51.678Z,24896
2017-07-30T13:32:52.528Z,28160
2017-07-30T13:33:53.365Z,26080
2017-07-30T13:34:54.481Z,27104
2017-07-30T13:35:55.340Z,30880
2017-07-30T13:36:56.154Z,32128
2017-07-30T13:37:56.910Z,36480